Terminal Aerodrome Forecast
Issued by NWS

Home | Current Version | Previous Version | Graphics & Text | Print | Product List | Glossary On
Versions: 1 2 3 4 5 6 7 8 9 10 11 12 13 14 15 16 17 18 19
000
FTUS43 KICT 231730
TAFCNU
TAF
KCNU 231730Z 2318/2418 10015G22KT P6SM OVC050
     FM240700 15011KT P6SM VCTS SCT020 OVC035CB
     FM241200 15012KT P6SM SCT012 OVC020
     FM241400 15013KT P6SM OVC015
     FM241600 17015G23KT P6SM OVC015=

USA.gov is the U.S. government's official web portal to all federal, state and local government web resources and services.